Time;durP1;ratioP1;P1;durP2;ratioP2;P2;SDS_P1;SDS_P2;PMS_P1;PMS_P2;Temp;Humidity;BMP_temperature;BMP_pressure;BME280_temperature;BME280_humidity;BME280_pressure;Samples;Min_cycle;Max_cycle;Signal;HPM_P1;HPM_P2
2022/06/10 00:00:00;;;;;;;11.05;0.20;;;;;;;23.60;28.41;100317.28;5012303;28;20041;-81
2022/06/10 00:02:45;;;;;;;0.55;0.10;;;;;;;23.59;28.02;100314.91;5008407;28;20037;-81
2022/06/10 00:05:31;;;;;;;3.55;0.35;;;;;;;23.59;27.84;100318.47;5018303;28;20053;-81
2022/06/10 00:08:21;;;;;;;1.67;0.10;;;;;;;23.60;26.89;100308.94;5018240;28;20057;-82
2022/06/10 00:11:07;;;;;;;0.60;0.10;;;;;;;23.62;28.78;100309.31;5018167;28;20733;-81
2022/06/10 00:13:52;;;;;;;8.73;0.40;;;;;;;23.58;29.74;100307.78;5018203;28;20053;-81
2022/06/10 00:16:37;;;;;;;2.90;0.20;;;;;;;23.57;27.50;100311.75;5017456;28;20418;-81
2022/06/10 00:19:22;;;;;;;3.42;0.10;;;;;;;23.55;27.33;100305.81;5017241;28;20060;-81
2022/06/10 00:22:07;;;;;;;0.82;0.10;;;;;;;23.58;28.04;100316.88;5016286;28;20053;-81
2022/06/10 00:24:52;;;;;;;3.05;0.10;;;;;;;23.60;26.60;100308.16;5018287;28;20065;-81
2022/06/10 00:27:37;;;;;;;1.42;0.57;;;;;;;23.58;28.17;100310.53;5016822;28;20076;-81
2022/06/10 00:30:26;;;;;;;0.82;0.20;;;;;;;23.55;27.62;100312.16;5017588;28;20522;-81
2022/06/10 00:33:12;;;;;;;4.75;0.45;;;;;;;23.57;26.62;100315.31;5017596;28;20056;-81
2022/06/10 00:35:58;;;;;;;0.90;0.17;;;;;;;23.61;26.56;100312.50;5009024;28;20489;-81
2022/06/10 00:38:43;;;;;;;3.15;0.10;;;;;;;23.60;27.26;100320.03;5011121;28;20041;-81
2022/06/10 00:41:29;;;;;;;3.38;0.68;;;;;;;23.60;28.32;100311.72;5019430;28;20052;-81
2022/06/10 00:44:38;;;;;;;0.80;0.10;;;;;;;23.65;26.64;100316.81;5016933;28;20406;-81
2022/06/10 00:47:31;;;;;;;0.22;0.05;;;;;;;23.63;26.95;100312.88;5022212;28;20078;-81
2022/06/10 00:50:28;;;;;;;2.75;0.20;;;;;;;23.61;27.39;100321.63;5016834;28;20509;-81
2022/06/10 00:53:19;;;;;;;4.65;0.52;;;;;;;23.58;26.34;100319.66;5013794;28;20044;-81
2022/06/10 00:56:13;;;;;;;1.50;0.55;;;;;;;23.60;27.77;100316.47;5016844;28;20048;-81
2022/06/10 00:59:13;;;;;;;15.10;0.67;;;;;;;23.60;26.45;100314.50;5021914;28;20053;-81
2022/06/10 01:02:02;;;;;;;2.05;0.10;;;;;;;23.63;27.78;100322.00;5013134;28;20038;-81
2022/06/10 01:04:48;;;;;;;4.40;0.10;;;;;;;23.61;26.02;100316.06;5009675;28;20534;-82
2022/06/10 01:07:37;;;;;;;3.50;0.20;;;;;;;23.59;28.13;100324.03;5017381;28;20045;-81
2022/06/10 01:10:23;;;;;;;0.30;0.10;;;;;;;23.61;26.34;100321.63;5017233;28;20422;-81
2022/06/10 01:13:18;;;;;;;0.80;0.10;;;;;;;23.56;28.18;100327.63;5012485;28;20045;-81
2022/06/10 01:16:30;;;;;;;1.88;0.10;;;;;;;23.61;26.79;100329.97;5015852;28;20037;-81
2022/06/10 01:19:30;;;;;;;2.75;0.20;;;;;;;23.57;27.93;100339.53;5014013;28;20045;-80
2022/06/10 01:22:48;;;;;;;1.08;0.10;;;;;;;23.54;28.25;100343.09;5013648;28;20049;-80
2022/06/10 01:25:51;;;;;;;2.42;0.10;;;;;;;23.51;28.94;100344.75;5016705;28;20052;-81
2022/06/10 01:28:58;;;;;;;2.65;0.10;;;;;;;23.49;27.80;100341.56;5016922;28;20049;-81
2022/06/10 01:31:57;;;;;;;0.30;0.10;;;;;;;23.50;27.30;100336.81;5009537;28;20060;-81
2022/06/10 01:34:50;;;;;;;3.63;0.22;;;;;;;23.50;29.26;100345.94;5020927;28;20048;-82
2022/06/10 01:37:52;;;;;;;0.77;0.20;;;;;;;23.51;27.63;100352.28;5018528;28;20061;-81
2022/06/10 01:41:03;;;;;;;2.90;0.20;;;;;;;23.55;26.47;100351.03;5018053;28;20041;-81
2022/06/10 01:44:13;;;;;;;1.20;0.13;;;;;;;23.54;26.77;100346.69;5016386;28;20048;-81
2022/06/10 01:47:05;;;;;;;0.35;0.10;;;;;;;23.51;26.57;100355.06;5011026;28;20057;-81
2022/06/10 01:50:12;;;;;;;0.55;0.20;;;;;;;23.51;25.91;100355.84;5011259;28;20045;-81
2022/06/10 01:52:58;;;;;;;0.65;0.10;;;;;;;23.56;25.92;100358.16;5010703;28;20049;-81
2022/06/10 01:55:51;;;;;;;0.00;0.00;;;;;;;23.52;27.69;100356.63;5019355;28;20045;-81
2022/06/10 01:58:43;;;;;;;1.25;0.10;;;;;;;23.47;29.31;100355.06;5016693;28;20041;-81
2022/06/10 02:01:37;;;;;;;0.40;0.20;;;;;;;23.51;27.88;100355.84;5016646;28;20049;-81
2022/06/10 02:04:30;;;;;;;0.90;0.10;;;;;;;23.54;27.29;100363.34;5016484;28;20049;-81
2022/06/10 02:07:28;;;;;;;1.33;0.10;;;;;;;23.51;27.11;100366.94;5012603;28;20296;-81
2022/06/10 02:10:27;;;;;;;1.00;0.40;;;;;;;23.56;26.44;100363.72;5016671;28;20045;-81
2022/06/10 02:13:21;;;;;;;0.57;0.10;;;;;;;23.48;26.94;100364.97;5011070;28;20053;-81
2022/06/10 02:16:11;;;;;;;0.85;0.10;;;;;;;23.52;26.23;100378.84;5012799;28;20525;-81
2022/06/10 02:19:04;;;;;;;1.48;0.15;;;;;;;23.54;26.69;100381.97;5016156;28;20037;-81
2022/06/10 02:21:55;;;;;;;2.63;0.20;;;;;;;23.48;28.60;100378.84;5018876;28;20045;-81
2022/06/10 02:24:46;;;;;;;1.48;0.20;;;;;;;23.49;27.95;100369.31;5017923;28;20052;-81
2022/06/10 02:27:39;;;;;;;0.43;0.10;;;;;;;23.55;28.16;100378.78;5016902;28;20049;-81
2022/06/10 02:31:04;;;;;;;0.10;0.00;;;;;;;23.52;28.99;100376.06;5013622;28;20057;-81
2022/06/10 02:33:49;;;;;;;0.75;0.10;;;;;;;23.51;29.83;100377.25;5019880;28;20053;-81
2022/06/10 02:36:42;;;;;;;0.75;0.10;;;;;;;23.56;27.53;100383.16;5018606;28;20049;-81
2022/06/10 02:39:31;;;;;;;2.65;0.17;;;;;;;23.50;29.14;100390.34;5019933;28;20398;-81
2022/06/10 02:42:36;;;;;;;0.95;0.10;;;;;;;23.55;28.33;100392.69;5020257;28;20065;-81
2022/06/10 02:45:29;;;;;;;0.68;0.10;;;;;;;23.51;27.62;100403.03;5018434;28;20045;-81
2022/06/10 02:48:37;;;;;;;3.50;0.30;;;;;;;23.49;28.02;100397.09;5015902;28;20049;-81
2022/06/10 02:51:23;;;;;;;1.17;0.10;;;;;;;23.47;28.08;100399.47;5007993;28;20053;-81
2022/06/10 02:54:17;;;;;;;0.20;0.10;;;;;;;23.50;28.34;100403.44;5014772;28;20410;-80
2022/06/10 02:57:12;;;;;;;1.77;0.15;;;;;;;23.46;27.31;100405.47;4999798;28;20056;-81
2022/06/10 03:03:11;;;;;;;5.73;0.20;;;;;;;23.51;27.50;100416.91;5016309;28;20037;-81
2022/06/10 03:06:06;;;;;;;0.52;0.17;;;;;;;23.45;28.67;100413.00;5017191;28;20041;-81
2022/06/10 03:09:00;;;;;;;1.05;0.13;;;;;;;23.44;26.83;100412.16;5012735;28;20045;-81
2022/06/10 03:11:50;;;;;;;0.63;0.08;;;;;;;23.45;27.87;100418.53;5015350;28;20049;-80
2022/06/10 03:14:44;;;;;;;0.52;0.10;;;;;;;23.48;27.74;100416.91;5018147;28;20045;-80
2022/06/10 03:17:42;;;;;;;0.90;0.17;;;;;;;23.44;27.07;100425.25;5019130;28;20053;-80
2022/06/10 03:21:07;;;;;;;0.55;0.00;;;;;;;23.42;27.00;100420.09;5029589;23;20542;-79
2022/06/10 03:24:04;;;;;;;0.98;0.08;;;;;;;23.43;28.38;100427.25;4987495;28;20046;-79
2022/06/10 03:26:55;;;;;;;1.17;0.30;;;;;;;23.43;28.90;100434.78;4997992;28;20041;-79
2022/06/10 03:29:47;;;;;;;1.45;0.10;;;;;;;23.46;26.64;100427.66;4996315;28;20038;-79
2022/06/10 03:32:49;;;;;;;3.10;0.15;;;;;;;23.42;27.77;100435.97;4973999;28;20062;-79
2022/06/10 03:35:51;;;;;;;0.68;0.20;;;;;;;23.42;28.31;100444.28;4974542;28;20045;-79
2022/06/10 03:38:42;;;;;;;2.17;0.10;;;;;;;23.44;27.72;100437.16;4974571;28;20049;-78
2022/06/10 03:41:34;;;;;;;5.25;0.40;;;;;;;23.37;28.41;100434.41;4974245;28;20515;-78
2022/06/10 03:44:20;;;;;;;0.52;0.10;;;;;;;23.40;27.32;100432.84;4989817;28;20045;-80
2022/06/10 03:47:07;;;;;;;2.42;0.08;;;;;;;23.37;28.67;100434.41;4992519;28;20046;-79
2022/06/10 03:49:57;;;;;;;20.35;0.80;;;;;;;23.32;28.97;100442.41;4967635;28;20519;-78
2022/06/10 03:52:44;;;;;;;2.92;0.10;;;;;;;23.31;28.76;100438.06;4993080;28;20042;-80
2022/06/10 03:55:31;;;;;;;2.72;0.20;;;;;;;23.31;28.67;100438.06;4992321;28;20050;-80
2022/06/10 03:58:16;;;;;;;3.08;0.10;;;;;;;23.30;28.62;100444.81;4990678;28;20069;-78
2022/06/10 04:01:01;;;;;;;2.17;0.10;;;;;;;23.30;28.13;100439.25;4983080;28;20041;-80
2022/06/10 04:03:46;;;;;;;3.03;0.15;;;;;;;23.28;28.51;100445.19;4985785;28;20062;-82
2022/06/10 04:06:31;;;;;;;1.35;0.17;;;;;;;23.27;28.96;100445.59;4993110;28;20050;-80
2022/06/10 04:09:16;;;;;;;0.65;0.00;;;;;;;23.32;27.93;100448.72;4977068;28;20054;-80
2022/06/10 04:12:02;;;;;;;0.65;0.20;;;;;;;23.28;28.92;100447.19;4988329;28;20054;-80
2022/06/10 04:14:46;;;;;;;2.30;0.10;;;;;;;23.27;27.36;100445.59;4978942;28;20527;-79
2022/06/10 04:17:32;;;;;;;1.40;0.25;;;;;;;23.24;28.32;100450.00;4995036;28;20053;-79
2022/06/10 04:20:20;;;;;;;0.38;0.10;;;;;;;23.27;28.10;100451.16;4988100;28;20057;-80
2022/06/10 04:23:07;;;;;;;3.78;0.10;;;;;;;23.26;28.88;100457.91;4991729;28;20432;-80
2022/06/10 04:25:52;;;;;;;1.52;0.15;;;;;;;23.22;28.46;100457.94;4973495;28;20050;-81
2022/06/10 04:28:37;;;;;;;0.35;0.08;;;;;;;23.29;28.13;100465.41;4984865;28;20747;-78
2022/06/10 04:31:22;;;;;;;3.45;0.08;;;;;;;23.28;28.82;100469.38;4989894;28;20050;-81
2022/06/10 04:34:07;;;;;;;2.30;0.10;;;;;;;23.30;27.96;100470.56;4974195;28;20050;-78
2022/06/10 04:36:52;;;;;;;0.90;0.15;;;;;;;23.29;28.78;100471.75;4981763;28;20054;-79
2022/06/10 04:39:37;;;;;;;1.02;0.10;;;;;;;23.32;28.87;100476.47;4969373;28;20063;-79
2022/06/10 04:42:22;;;;;;;1.35;0.45;;;;;;;23.36;29.57;100482.03;4971011;28;20445;-78
2022/06/10 04:45:08;;;;;;;3.40;0.00;;;;;;;23.39;28.83;100470.88;4986813;28;20054;-79
2022/06/10 04:47:54;;;;;;;0.45;0.10;;;;;;;23.42;29.24;100478.38;4993713;28;20440;-81
2022/06/10 04:50:40;;;;;;;3.53;0.17;;;;;;;23.47;30.53;100470.88;4976110;28;20054;-80
2022/06/10 04:53:25;;;;;;;3.47;0.20;;;;;;;23.50;28.71;100475.59;4973529;28;20063;-78
2022/06/10 04:56:10;;;;;;;6.43;1.33;;;;;;;23.52;33.43;100465.66;4974425;28;20046;-80
2022/06/10 04:58:55;;;;;;;2.45;0.28;;;;;;;23.43;31.83;100484.75;4983393;28;20416;-80
2022/06/10 05:01:40;;;;;;;0.35;0.10;;;;;;;23.36;30.17;100488.38;4973313;28;20077;-79
2022/06/10 05:04:25;;;;;;;3.78;0.20;;;;;;;23.38;30.05;100487.94;4991822;28;20119;-78
2022/06/10 05:07:10;;;;;;;5.90;0.47;;;;;;;23.34;30.16;100501.06;4984695;28;20604;-79
2022/06/10 05:09:54;;;;;;;14.32;0.88;;;;;;;23.54;30.27;100504.91;4964627;28;20050;-76
2022/06/10 05:12:39;;;;;;;7.82;0.20;;;;;;;23.63;31.06;100510.78;4965151;28;20039;-78
2022/06/10 05:15:24;;;;;;;1.23;0.10;;;;;;;23.69;31.32;100509.16;4965525;28;20054;-76
2022/06/10 05:18:10;;;;;;;1.85;0.20;;;;;;;23.74;32.30;100513.47;4981948;28;20118;-76
2022/06/10 05:20:56;;;;;;;0.98;0.30;;;;;;;23.79;32.42;100515.81;4974191;28;20046;-78
2022/06/10 05:23:45;;;;;;;4.97;0.40;;;;;;;23.81;33.06;100505.88;4975357;28;20420;-77
2022/06/10 05:26:30;;;;;;;2.53;0.28;;;;;;;23.83;33.39;100517.34;4973774;28;20612;-77
2022/06/10 05:29:15;;;;;;;4.75;0.10;;;;;;;23.85;32.93;100520.53;4964487;28;20154;-77
2022/06/10 05:31:59;;;;;;;0.25;0.00;;;;;;;23.88;33.11;100519.69;4984776;28;20062;-78
2022/06/10 05:34:48;;;;;;;2.75;0.10;;;;;;;23.90;33.03;100533.19;4973333;28;20038;-78
2022/06/10 05:37:33;;;;;;;1.60;0.30;;;;;;;23.93;33.73;100539.88;4996592;28;20070;-79
2022/06/10 05:40:21;;;;;;;2.30;0.20;;;;;;;23.96;34.21;100530.75;4992787;28;20038;-78
2022/06/10 05:43:06;;;;;;;4.00;0.10;;;;;;;23.96;35.06;100547.41;4974581;28;20042;-78
2022/06/10 05:45:51;;;;;;;1.58;0.43;;;;;;;23.98;32.05;100550.56;4974751;28;20538;-78
2022/06/10 05:48:36;;;;;;;5.78;0.80;;;;;;;24.00;31.31;100556.50;4975608;28;20436;-78
2022/06/10 05:51:21;;;;;;;2.97;0.57;;;;;;;24.02;33.56;100554.13;4978235;28;20535;-77
2022/06/10 05:54:05;;;;;;;1.90;0.45;;;;;;;24.06;32.25;100563.22;4996285;28;20459;-77
2022/06/10 05:56:50;;;;;;;;;;;;;;;24.05;31.46;100567.19;4978901;28;20046;-77
2022/06/10 05:59:35;;;;;;;4.50;0.40;;;;;;;24.11;31.90;100574.66;4997978;28;19914;-78
2022/06/10 06:02:22;;;;;;;3.78;0.47;;;;;;;24.12;35.13;100573.47;4990105;28;20054;-78
2022/06/10 06:05:09;;;;;;;6.40;0.80;;;;;;;24.14;34.79;100576.63;4994860;28;20420;-78
2022/06/10 06:07:55;;;;;;;2.72;1.23;;;;;;;24.15;33.54;100577.41;4984280;28;20050;-80
2022/06/10 06:10:40;;;;;;;1.23;0.45;;;;;;;24.16;34.53;100584.56;4989654;28;20069;-78
2022/06/10 06:13:24;;;;;;;2.60;0.43;;;;;;;24.21;30.65;100575.81;4995084;28;20058;-79
2022/06/10 06:16:13;;;;;;;4.43;0.50;;;;;;;24.23;35.40;100585.28;4991916;28;20046;-78
2022/06/10 06:18:58;;;;;;;6.88;1.23;;;;;;;24.22;36.16;100585.72;4977207;28;20063;-79
2022/06/10 06:21:42;;;;;;;2.97;0.80;;;;;;;24.26;34.18;100598.38;4979516;28;20050;-78
2022/06/10 06:24:28;;;;;;;1.98;0.45;;;;;;;24.29;34.04;100594.78;4976947;28;20054;-77
2022/06/10 06:27:14;;;;;;;2.72;0.47;;;;;;;24.37;31.96;100583.59;4990615;28;20049;-79
2022/06/10 06:30:01;;;;;;;2.50;0.45;;;;;;;24.44;29.96;100589.06;4977259;28;20050;-78
2022/06/10 06:32:47;;;;;;;3.30;0.60;;;;;;;24.51;29.33;100595.34;4977005;28;20419;-77
2022/06/10 06:35:34;;;;;;;4.35;0.70;;;;;;;24.57;29.79;100604.03;4989220;28;20050;-77
2022/06/10 06:38:21;;;;;;;6.72;0.57;;;;;;;24.64;29.48;100604.75;4976267;28;20058;-77
2022/06/10 06:41:06;;;;;;;4.35;1.33;;;;;;;24.73;30.89;100609.03;4972164;28;20050;-79
2022/06/10 06:43:51;;;;;;;2.95;0.75;;;;;;;24.76;30.76;100611.78;4989278;28;20112;-79
2022/06/10 06:46:38;;;;;;;3.53;0.63;;;;;;;24.90;30.19;100610.84;4976116;28;20424;-77
2022/06/10 06:49:27;;;;;;;26.38;2.38;;;;;;;24.90;30.01;100619.97;4991260;28;20531;-77
2022/06/10 06:52:12;;;;;;;3.05;0.80;;;;;;;24.94;29.40;100617.19;4976064;28;20039;-79
2022/06/10 06:54:56;;;;;;;;;;;;;;;24.96;31.44;100617.53;4993553;28;20527;-77
2022/06/10 06:57:41;;;;;;;3.73;0.40;;;;;;;24.96;29.96;100614.75;4978299;28;20329;-80
2022/06/10 07:00:27;;;;;;;2.75;0.43;;;;;;;25.04;29.92;100621.84;4975309;28;20065;-78
2022/06/10 07:03:12;;;;;;;4.38;0.40;;;;;;;25.11;28.96;100624.50;4977653;28;20046;-80
2022/06/10 07:05:57;;;;;;;0.70;0.32;;;;;;;25.13;30.09;100630.47;4975510;28;20070;-80
2022/06/10 07:08:42;;;;;;;4.57;0.98;;;;;;;25.18;30.49;100638.34;4978365;28;20049;-80
2022/06/10 07:11:27;;;;;;;2.58;0.60;;;;;;;25.24;29.60;100631.13;4991444;28;20057;-78
2022/06/10 07:14:13;;;;;;;1.20;0.35;;;;;;;25.33;29.74;100642.53;4977097;28;20053;-77
2022/06/10 07:16:59;;;;;;;1.98;0.65;;;;;;;25.30;29.96;100643.34;4976777;28;20053;-78
2022/06/10 07:19:48;;;;;;;1.55;0.68;;;;;;;25.29;31.81;100646.56;4994746;28;20511;-77
2022/06/10 07:22:33;;;;;;;2.00;0.52;;;;;;;25.33;29.72;100648.09;4992374;28;20061;-79
2022/06/10 07:25:18;;;;;;;5.15;0.40;;;;;;;25.36;30.86;100647.25;4973070;28;20046;-78
2022/06/10 07:28:03;;;;;;;1.70;1.05;;;;;;;25.46;29.99;100653.88;4993609;28;20050;-79
2022/06/10 07:30:48;;;;;;;2.85;0.22;;;;;;;25.58;28.86;100653.38;4990303;28;20046;-78
2022/06/10 07:33:35;;;;;;;2.58;0.50;;;;;;;25.68;29.35;100654.41;4982689;28;20062;-77
2022/06/10 07:36:20;;;;;;;2.70;0.60;;;;;;;25.64;30.02;100656.47;4989434;28;20416;-77
2022/06/10 07:39:05;;;;;;;2.28;0.90;;;;;;;25.74;29.77;100667.47;4973574;28;20050;-77
2022/06/10 07:42:02;;;;;;;3.08;0.47;;;;;;;25.74;30.68;100666.69;4975506;28;20527;-76
2022/06/10 07:44:47;;;;;;;1.27;0.30;;;;;;;25.79;30.34;100671.78;4984218;28;20045;-76
2022/06/10 07:47:31;;;;;;;2.47;0.25;;;;;;;25.74;31.92;100663.91;4973956;28;20054;-76
2022/06/10 07:50:17;;;;;;;;;;;;;;;25.74;30.91;100670.25;4984841;28;20045;-76
2022/06/10 07:53:02;;;;;;;1.08;0.30;;;;;;;25.85;30.38;100676.44;4972881;28;19914;-78
2022/06/10 07:55:47;;;;;;;0.65;0.20;;;;;;;25.88;33.72;100669.25;4974432;28;20046;-76
2022/06/10 07:58:32;;;;;;;2.97;0.45;;;;;;;25.95;31.72;100669.16;4974654;28;20420;-77
2022/06/10 08:01:17;;;;;;;4.20;0.45;;;;;;;26.08;30.29;100672.13;4974586;28;20050;-76
2022/06/10 08:04:06;;;;;;;6.68;0.63;;;;;;;26.09;30.60;100680.09;4974774;28;20045;-78
2022/06/10 08:06:51;;;;;;;2.67;0.30;;;;;;;26.12;30.09;100676.44;4972643;28;20050;-77
2022/06/10 08:09:36;;;;;;;2.78;0.40;;;;;;;26.03;33.20;100675.41;4973129;28;20519;-76
2022/06/10 08:12:21;;;;;;;;;;;;;;;26.02;32.37;100684.97;4988960;28;20041;-78
2022/06/10 08:15:06;;;;;;;1.00;0.40;;;;;;;26.16;32.28;100684.78;4975542;28;19922;-80
2022/06/10 08:17:52;;;;;;;4.78;0.77;;;;;;;26.28;30.14;100690.56;4990254;28;20058;-79
2022/06/10 08:23:45;;;;;;;1.60;0.40;;;;;;;26.41;30.48;100689.97;4972693;28;20053;-77
2022/06/10 08:26:30;;;;;;;1.02;0.40;;;;;;;26.44;31.05;100695.47;4986006;28;20065;-78
2022/06/10 08:29:16;;;;;;;1.80;0.45;;;;;;;26.39;31.81;100693.19;4972788;28;20451;-77
2022/06/10 08:32:01;;;;;;;4.43;0.40;;;;;;;26.59;28.55;100701.59;4974104;28;20054;-78
2022/06/10 08:34:46;;;;;;;1.73;0.20;;;;;;;26.60;28.72;100695.59;4964543;28;20058;-77
2022/06/10 08:37:32;;;;;;;1.05;0.60;;;;;;;26.49;33.29;100708.94;4970894;28;20058;-76
2022/06/10 08:40:41;;;;;;;0.73;0.30;;;;;;;26.45;34.32;100701.84;4974198;28;20047;-78
2022/06/10 08:43:35;;;;;;;1.80;0.30;;;;;;;26.48;32.89;100695.41;4972345;28;20066;-78
2022/06/10 08:47:05;;;;;;;2.22;0.30;;;;;;;26.66;32.26;100713.44;4974284;28;20050;-78
2022/06/10 08:49:52;;;;;;;4.88;0.40;;;;;;;26.68;30.27;100713.00;4988586;28;20057;-76
2022/06/10 08:53:17;;;;;;;0.70;0.30;;;;;;;26.74;31.37;100708.50;4987472;28;20057;-78
2022/06/10 08:56:11;;;;;;;0.95;0.40;;;;;;;27.00;29.43;100707.66;4972476;28;20045;-76
2022/06/10 08:59:08;;;;;;;0.85;0.25;;;;;;;26.95;33.37;100724.91;4981934;28;20046;-76
2022/06/10 09:02:00;;;;;;;2.17;1.08;;;;;;;27.02;30.14;100724.75;4982192;28;20042;-74
2022/06/10 09:05:06;;;;;;;4.78;0.52;;;;;;;26.93;30.73;100721.75;4987843;28;20042;-77
2022/06/10 09:07:58;;;;;;;2.92;0.30;;;;;;;27.10;28.98;100717.06;4985353;28;20053;-77
2022/06/10 09:11:01;;;;;;;0.80;0.20;;;;;;;27.28;28.81;100723.06;4978210;28;20046;-77
2022/06/10 09:13:57;;;;;;;0.50;0.10;;;;;;;27.39;27.22;100725.66;4972051;28;20062;-76
2022/06/10 09:16:51;;;;;;;0.57;0.20;;;;;;;27.55;26.65;100734.13;4989905;28;20049;-77
2022/06/10 09:20:08;;;;;;;2.33;0.20;;;;;;;27.37;32.48;100744.84;4968693;28;20045;-77
2022/06/10 09:23:02;;;;;;;0.57;0.10;;;;;;;27.34;30.58;100746.50;5020413;23;20053;-75
2022/06/10 09:25:50;;;;;;;2.35;0.32;;;;;;;27.15;32.88;100739.69;5012660;28;20133;-75
2022/06/10 09:28:39;;;;;;;0.85;0.20;;;;;;;27.10;32.70;100747.75;5018055;28;20052;-77
2022/06/10 09:31:55;;;;;;;2.05;0.20;;;;;;;27.33;30.79;100750.50;5019703;28;20057;-77
2022/06/10 09:35:02;;;;;;;2.38;0.30;;;;;;;27.33;31.17;100744.91;5023678;28;20061;-78
2022/06/10 09:37:56;;;;;;;2.20;0.30;;;;;;;27.47;32.65;100743.84;5014694;28;20534;-79
2022/06/10 09:40:50;;;;;;;0.98;0.30;;;;;;;27.35;29.80;100750.06;5024688;28;20060;-79
2022/06/10 09:43:57;;;;;;;1.00;0.10;;;;;;;27.73;28.42;100745.75;5019396;28;20049;-78
2022/06/10 09:46:54;;;;;;;0.38;0.25;;;;;;;27.95;27.16;100748.84;5030398;28;20049;-78
2022/06/10 09:49:48;;;;;;;0.63;0.10;;;;;;;28.02;27.42;100745.91;5022887;28;20041;-78
2022/06/10 09:53:20;;;;;;;1.08;0.10;;;;;;;27.77;30.04;100740.06;5026162;28;20072;-77
2022/06/10 09:56:23;;;;;;;4.65;0.30;;;;;;;27.85;29.37;100747.84;5013793;28;20518;-77
2022/06/10 09:59:15;;;;;;;0.98;0.20;;;;;;;27.87;26.63;100750.22;5024352;28;20049;-77
2022/06/10 10:02:04;;;;;;;1.58;0.10;;;;;;;28.11;26.53;100748.09;5013053;28;20056;-77
2022/06/10 10:05:24;;;;;;;0.70;0.20;;;;;;;28.29;26.45;100757.66;5011112;28;20048;-77
2022/06/10 10:08:23;;;;;;;2.50;0.10;;;;;;;28.06;29.59;100752.97;5015472;28;20048;-77
2022/06/10 10:11:26;;;;;;;3.80;0.40;;;;;;;27.98;31.21;100745.97;5029614;28;20057;-77
2022/06/10 10:14:31;;;;;;;7.47;0.10;;;;;;;28.32;25.47;100761.59;5015463;28;20041;-77
2022/06/10 10:17:19;;;;;;;3.40;0.40;;;;;;;28.09;30.30;100751.31;5016382;28;20529;-77
2022/06/10 10:20:28;;;;;;;2.38;0.20;;;;;;;28.42;29.38;100758.56;5032584;28;20531;-76
2022/06/10 10:23:30;;;;;;;4.03;0.25;;;;;;;28.22;28.00;100759.84;5014066;28;20045;-77
2022/06/10 10:26:38;;;;;;;0.40;0.32;;;;;;;28.31;27.73;100757.22;5018959;28;20045;-77
2022/06/10 10:29:26;;;;;;;2.53;0.35;;;;;;;28.40;26.24;100761.00;5022317;28;20052;-77
2022/06/10 10:32:16;;;;;;;2.70;0.40;;;;;;;28.46;27.73;100761.25;5016656;28;20526;-76
2022/06/10 10:35:17;;;;;;;0.93;0.10;;;;;;;28.42;26.86;100763.38;5030768;28;20049;-77
2022/06/10 10:38:08;;;;;;;5.57;0.52;;;;;;;28.53;26.14;100768.72;5026596;28;20053;-78
2022/06/10 10:40:53;;;;;;;5.07;0.20;;;;;;;28.35;27.66;100760.72;5014956;28;20052;-76
2022/06/10 10:43:38;;;;;;;2.97;0.50;;;;;;;28.40;26.97;100763.78;5016077;28;20044;-77
2022/06/10 10:46:31;;;;;;;0.75;0.20;;;;;;;28.44;26.26;100772.88;5014115;28;20427;-77
2022/06/10 10:49:23;;;;;;;1.77;0.10;;;;;;;28.56;27.16;100774.22;5015817;28;20045;-78
2022/06/10 10:52:16;;;;;;;6.50;0.80;;;;;;;28.27;30.49;100767.72;4999841;28;20060;-78
2022/06/10 10:55:13;;;;;;;1.00;0.00;;;;;;;28.32;27.80;100768.00;5012457;28;20048;-78
2022/06/10 10:58:04;;;;;;;3.05;1.20;;;;;;;28.25;30.61;100764.56;5028780;28;20052;-78
2022/06/10 11:01:43;;;;;;;1.73;0.30;;;;;;;28.21;29.87;100758.28;5013947;28;20041;-77
2022/06/10 11:04:29;;;;;;;4.25;0.32;;;;;;;28.44;27.60;100761.69;5015686;28;20056;-79
2022/06/10 11:07:18;;;;;;;0.90;0.32;;;;;;;28.26;30.64;100761.34;5016288;28;20053;-79
2022/06/10 11:10:17;;;;;;;2.85;0.30;;;;;;;28.11;28.62;100764.88;5019027;28;20049;-79
2022/06/10 11:13:10;;;;;;;1.10;0.00;;;;;;;28.32;27.76;100764.41;5025188;28;20044;-79
2022/06/10 11:15:55;;;;;;;1.00;0.20;;;;;;;28.08;29.33;100764.53;5014546;28;20045;-78
2022/06/10 11:18:40;;;;;;;0.43;0.10;;;;;;;28.14;31.58;100753.63;5016370;28;20052;-79
2022/06/10 11:21:27;;;;;;;0.32;0.13;;;;;;;28.11;28.57;100764.88;5015306;28;20069;-79
2022/06/10 11:24:16;;;;;;;2.83;0.20;;;;;;;28.54;26.10;100764.69;5017826;28;20423;-78
2022/06/10 11:27:35;;;;;;;0.20;0.10;;;;;;;28.44;28.92;100770.09;5014793;28;20048;-78
2022/06/10 11:30:24;;;;;;;2.13;0.25;;;;;;;28.22;31.16;100765.44;5015221;28;20404;-79
2022/06/10 11:33:30;;;;;;;2.38;0.10;;;;;;;28.09;32.41;100762.50;5015907;28;20522;-79
2022/06/10 11:36:27;;;;;;;0.20;0.00;;;;;;;28.38;26.31;100759.88;5014638;28;20041;-78
2022/06/10 11:39:27;;;;;;;2.47;0.20;;;;;;;28.34;31.07;100773.16;5011476;28;20414;-79
2022/06/10 11:42:21;;;;;;;1.77;0.20;;;;;;;28.82;25.99;100770.38;5010934;28;20060;-79
2022/06/10 11:45:32;;;;;;;0.10;0.08;;;;;;;28.82;29.22;100776.00;5019028;28;20069;-79
2022/06/10 11:48:39;;;;;;;0.47;0.22;;;;;;;28.48;30.63;100772.81;5008241;28;20064;-79
2022/06/10 11:51:47;;;;;;;8.77;0.30;;;;;;;27.77;30.85;100760.41;5017594;28;20061;-79
2022/06/10 11:54:46;;;;;;;4.00;0.20;;;;;;;27.72;30.74;100754.53;5012622;28;20049;-79
2022/06/10 12:00:55;;;;;;;5.10;0.47;;;;;;;28.14;27.81;100758.44;5018093;28;20057;-80
2022/06/10 12:03:52;;;;;;;1.08;0.10;;;;;;;28.47;25.08;100749.66;5016832;28;20056;-80
2022/06/10 12:06:44;;;;;;;0.85;0.10;;;;;;;29.24;23.54;100753.69;5010831;28;20048;-83
2022/06/10 12:09:43;;;;;;;2.72;0.10;;;;;;;29.69;23.69;100760.03;5020127;28;20057;-81
2022/06/10 12:12:39;;;;;;;0.60;0.25;;;;;;;29.92;22.86;100755.41;5006397;28;20050;-81
2022/06/10 12:15:30;;;;;;;0.47;0.10;;;;;;;29.85;23.50;100761.16;5020076;28;20049;-82
2022/06/10 12:18:16;;;;;;;0.03;0.03;;;;;;;29.59;24.55;100749.13;5015617;28;20521;-79
2022/06/10 12:21:04;;;;;;;15.02;1.10;;;;;;;29.35;23.54;100751.41;5015555;28;20045;-81
2022/06/10 12:23:49;;;;;;;1.10;0.57;;;;;;;29.01;25.24;100754.69;5011160;28;20049;-81
2022/06/10 12:27:00;;;;;;;1.67;0.52;;;;;;;28.89;26.69;100756.22;5005159;28;20517;-81
2022/06/10 12:29:54;;;;;;;0.43;0.13;;;;;;;28.73;27.02;100758.25;5002885;28;20048;-81
2022/06/10 12:33:03;;;;;;;0.43;0.10;;;;;;;28.64;26.97;100752.44;5006537;28;20529;-80
2022/06/10 12:35:52;;;;;;;1.10;0.20;;;;;;;28.32;27.19;100748.41;5022018;28;20041;-79
2022/06/10 12:38:40;;;;;;;4.05;0.32;;;;;;;28.45;27.59;100746.47;5016015;28;20700;-80
2022/06/10 12:41:40;;;;;;;1.55;0.20;;;;;;;28.79;26.20;100737.69;5017055;28;20129;-79
2022/06/10 12:44:29;;;;;;;1.35;0.20;;;;;;;28.40;28.33;100741.41;5008601;28;20061;-79
2022/06/10 12:47:21;;;;;;;0.90;0.20;;;;;;;29.01;25.39;100737.88;5007912;28;20073;-80
2022/06/10 12:50:23;;;;;;;1.83;0.30;;;;;;;29.57;24.66;100740.34;5010267;28;20513;-81
2022/06/10 12:53:17;;;;;;;0.73;0.17;;;;;;;29.32;25.39;100741.06;5011079;28;20518;-80
2022/06/10 12:56:21;;;;;;;2.67;0.20;;;;;;;29.60;25.35;100734.66;5016212;28;20068;-80
2022/06/10 12:59:13;;;;;;;5.65;0.30;;;;;;;29.36;25.44;100747.34;5013978;28;20037;-80
2022/06/10 13:01:57;;;;;;;12.43;0.70;;;;;;;29.08;26.19;100745.31;5009189;28;20049;-80
2022/06/10 13:04:42;;;;;;;5.28;0.25;;;;;;;29.08;26.36;100736.91;5012869;28;20038;-80
2022/06/10 13:07:36;;;;;;;1.98;0.30;;;;;;;28.74;26.87;100734.63;5007478;28;20503;-81
2022/06/10 13:10:33;;;;;;;0.52;0.30;;;;;;;29.15;25.53;100726.31;5016271;28;20048;-81
2022/06/10 13:13:23;;;;;;;4.10;0.50;;;;;;;29.21;25.14;100724.53;5017384;28;20622;-80
2022/06/10 13:16:38;;;;;;;2.65;0.30;;;;;;;28.94;27.16;100726.09;5019705;28;20049;-80
2022/06/10 13:19:56;;;;;;;0.32;0.30;;;;;;;28.83;26.39;100723.59;5014611;28;20049;-80
2022/06/10 13:22:42;;;;;;;3.55;0.32;;;;;;;28.60;27.41;100729.38;5015478;28;20037;-79
2022/06/10 13:25:27;;;;;;;3.10;0.30;;;;;;;28.19;28.91;100724.38;5023125;28;20053;-79
2022/06/10 13:28:17;;;;;;;1.52;0.40;;;;;;;28.36;26.74;100721.13;5014033;28;20065;-78
2022/06/10 13:31:16;;;;;;;3.00;0.40;;;;;;;28.73;26.63;100728.25;5015495;28;20045;-80